createdAt,value
2016-06-03T00:00:00.794Z,18.7
2016-06-03T00:00:10.810Z,18.7
2016-06-03T00:00:20.826Z,18.7
2016-06-03T00:00:30.779Z,18.7
2016-06-03T00:00:40.622Z,18.7
2016-06-03T00:00:50.796Z,18.7
2016-06-03T00:01:00.796Z,18.7
2016-06-03T00:01:10.765Z,18.7
2016-06-03T00:01:20.765Z,18.6
2016-06-03T00:01:30.812Z,18.7
2016-06-03T00:01:40.828Z,18.5
2016-06-03T00:01:50.784Z,18.4
2016-06-03T00:02:00.784Z,18.4
2016-06-03T00:02:10.768Z,18.5
2016-06-03T00:02:20.768Z,18.5
2016-06-03T00:02:30.768Z,18.5
2016-06-03T00:02:40.752Z,18.5
2016-06-03T00:02:50.755Z,18.4
2016-06-03T00:03:00.771Z,18.5
2016-06-03T00:03:10.755Z,18.5
2016-06-03T00:03:21.052Z,18.5
2016-06-03T00:03:30.740Z,18.6
2016-06-03T00:03:40.802Z,18.6
2016-06-03T00:03:50.742Z,18.7
2016-06-03T00:04:01.023Z,18.6
2016-06-03T00:04:10.726Z,18.6
2016-06-03T00:04:20.757Z,18.6
2016-06-03T00:04:30.757Z,18.5
2016-06-03T00:04:40.742Z,18.6
2016-06-03T00:04:50.713Z,18.5
2016-06-03T00:05:00.916Z,18.5
2016-06-03T00:05:10.806Z,18.6
2016-06-03T00:05:20.713Z,18.5
2016-06-03T00:05:30.713Z,18.5
2016-06-03T00:05:40.759Z,18.6
2016-06-03T00:05:51.747Z,18.5
2016-06-03T00:06:01.825Z,18.5
2016-06-03T00:06:11.778Z,18.5
2016-06-03T00:06:21.622Z,18.5
2016-06-03T00:06:31.544Z,18.6
2016-06-03T00:06:41.247Z,18.6
2016-06-03T00:06:51.562Z,18.7
2016-06-03T00:07:01.562Z,18.7
2016-06-03T00:07:11.578Z,18.7
2016-06-03T00:07:21.562Z,18.7
2016-06-03T00:07:30.765Z,18.7
2016-06-03T00:07:40.719Z,18.7
2016-06-03T00:07:50.675Z,18.7
2016-06-03T00:08:00.675Z,18.7
2016-06-03T00:08:10.675Z,18.7
2016-06-03T00:08:20.706Z,18.7
2016-06-03T00:08:30.659Z,18.6
2016-06-03T00:08:40.690Z,18.6
2016-06-03T00:08:50.661Z,18.6
2016-06-03T00:09:00.692Z,18.7
2016-06-03T00:09:10.661Z,18.7
2016-06-03T00:09:20.661Z,18.6
2016-06-03T00:09:30.927Z,18.6
2016-06-03T00:09:40.349Z,18.7
2016-06-03T00:09:50.664Z,18.7
2016-06-03T00:10:00.648Z,18.7
2016-06-03T00:10:10.508Z,18.7
2016-06-03T00:10:20.883Z,18.7
2016-06-03T00:10:30.820Z,18.7
2016-06-03T00:10:40.570Z,18.7
2016-06-03T00:10:51.479Z,18.6
2016-06-03T00:11:00.619Z,18.7
2016-06-03T00:11:10.619Z,18.7
2016-06-03T00:11:20.635Z,18.6
2016-06-03T00:11:30.619Z,18.7
2016-06-03T00:11:40.619Z,18.6
2016-06-03T00:11:50.623Z,18.6
2016-06-03T00:12:00.608Z,18.7
2016-06-03T00:12:10.623Z,18.5
2016-06-03T00:12:20.608Z,18.5
2016-06-03T00:12:30.608Z,18.4
2016-06-03T00:12:40.623Z,18.5
2016-06-03T00:12:50.594Z,18.5
2016-06-03T00:13:00.625Z,18.5
2016-06-03T00:13:10.594Z,18.7
2016-06-03T00:13:20.594Z,18.6
2016-06-03T00:13:30.578Z,18.5
2016-06-03T00:13:40.610Z,18.5
2016-06-03T00:13:50.597Z,18.7
2016-06-03T00:14:00.597Z,18.6
2016-06-03T00:14:10.566Z,18.7
2016-06-03T00:14:20.566Z,18.7
2016-06-03T00:14:30.581Z,18.7
2016-06-03T00:14:40.628Z,18.7
2016-06-03T00:14:50.600Z,18.7
2016-06-03T00:15:00.569Z,18.7
2016-06-03T00:15:10.569Z,18.6
2016-06-03T00:15:20.569Z,18.7
2016-06-03T00:15:30.553Z,18.7
2016-06-03T00:15:40.569Z,18.7
2016-06-03T00:15:50.633Z,18.6
2016-06-03T00:16:00.633Z,18.7
2016-06-03T00:16:10.555Z,18.6
2016-06-03T00:16:20.539Z,18.6
2016-06-03T00:16:30.539Z,18.6
2016-06-03T00:16:40.414Z,18.6
2016-06-03T00:16:50.558Z,18.6
2016-06-03T00:17:00.527Z,18.7
2016-06-03T00:17:10.542Z,18.7
2016-06-03T00:17:20.605Z,18.7
2016-06-03T00:17:30.527Z,18.7
2016-06-03T00:17:40.527Z,18.7
2016-06-03T00:17:50.514Z,18.7
2016-06-03T00:18:00.561Z,18.7
2016-06-03T00:18:10.545Z,18.7
2016-06-03T00:18:20.514Z,18.7
2016-06-03T00:18:30.358Z,18.6
2016-06-03T00:18:40.577Z,18.7
2016-06-03T00:18:50.502Z,18.6
2016-06-03T00:19:00.502Z,18.7
2016-06-03T00:19:10.502Z,18.6
2016-06-03T00:19:20.548Z,18.8
2016-06-03T00:19:30.502Z,18.7
2016-06-03T00:19:40.502Z,18.7
2016-06-03T00:19:50.489Z,18.8
2016-06-03T00:20:00.520Z,18.8
2016-06-03T00:20:10.489Z,18.8
2016-06-03T00:20:20.473Z,18.8
2016-06-03T00:20:30.489Z,18.9
2016-06-03T00:20:40.520Z,18.8
2016-06-03T00:20:50.490Z,18.7
2016-06-03T00:21:00.474Z,18.7
2016-06-03T00:21:10.474Z,18.7
2016-06-03T00:21:20.474Z,18.8
2016-06-03T00:21:30.474Z,18.7
2016-06-03T00:21:40.474Z,18.7
2016-06-03T00:21:50.478Z,18.7
2016-06-03T00:22:00.510Z,18.9
2016-06-03T00:22:10.447Z,18.7
2016-06-03T00:22:20.463Z,18.7
2016-06-03T00:22:30.463Z,18.7
2016-06-03T00:22:40.525Z,18.6
2016-06-03T00:22:50.465Z,18.7
2016-06-03T00:23:00.480Z,18.7
2016-06-03T00:23:10.433Z,18.7
2016-06-03T00:23:20.465Z,18.6
2016-06-03T00:23:30.433Z,18.7
2016-06-03T00:23:40.449Z,18.6
2016-06-03T00:23:50.452Z,18.6
2016-06-03T00:24:00.452Z,18.6
2016-06-03T00:24:10.421Z,18.6
2016-06-03T00:24:20.436Z,18.7
2016-06-03T00:24:30.280Z,18.6
2016-06-03T00:24:40.483Z,18.7
2016-06-03T00:24:50.735Z,18.7
2016-06-03T00:25:00.438Z,18.7
2016-06-03T00:25:11.423Z,18.8
2016-06-03T00:25:21.017Z,18.9
2016-06-03T00:25:30.454Z,18.8
2016-06-03T00:25:40.407Z,18.7
2016-06-03T00:25:50.426Z,18.8
2016-06-03T00:26:00.426Z,18.8
2016-06-03T00:26:10.395Z,18.7
2016-06-03T00:26:20.395Z,18.6
2016-06-03T00:26:30.410Z,18.7
2016-06-03T00:26:40.441Z,18.5
2016-06-03T00:26:50.398Z,18.5
2016-06-03T00:27:00.241Z,18.4
2016-06-03T00:27:10.398Z,18.5
2016-06-03T00:27:20.226Z,18.6
2016-06-03T00:27:30.429Z,18.5
2016-06-03T00:27:40.382Z,18.6
2016-06-03T00:27:50.384Z,18.6
2016-06-03T00:28:00.384Z,18.7
2016-06-03T00:28:10.384Z,18.7
2016-06-03T00:28:20.275Z,18.7
2016-06-03T00:28:30.368Z,18.7
2016-06-03T00:28:40.353Z,18.7
2016-06-03T00:28:50.357Z,18.7
2016-06-03T00:29:00.435Z,18.6
2016-06-03T00:29:10.357Z,18.7
2016-06-03T00:29:20.357Z,18.7
2016-06-03T00:29:30.357Z,18.6
2016-06-03T00:29:40.450Z,18.7
2016-06-03T00:29:50.359Z,18.6
2016-06-03T00:30:00.390Z,18.5
2016-06-03T00:30:10.327Z,18.5
2016-06-03T00:30:20.374Z,18.4
2016-06-03T00:30:30.343Z,18.5
2016-06-03T00:30:40.218Z,18.5
2016-06-03T00:30:50.345Z,18.5
2016-06-03T00:31:04.095Z,18.6
2016-06-03T00:31:12.908Z,18.7
2016-06-03T00:31:22.892Z,18.6
2016-06-03T00:31:32.892Z,18.5
2016-06-03T00:31:42.892Z,18.6
2016-06-03T00:31:52.912Z,18.5
2016-06-03T00:32:02.880Z,18.6
2016-06-03T00:32:12.912Z,18.7
2016-06-03T00:32:22.912Z,18.7
2016-06-03T00:32:32.927Z,18.7
2016-06-03T00:32:42.880Z,18.6
2016-06-03T00:32:52.867Z,18.7
2016-06-03T00:33:02.882Z,18.7
2016-06-03T00:33:12.882Z,18.7
2016-06-03T00:33:22.851Z,18.8
2016-06-03T00:33:32.867Z,18.7
2016-06-03T00:33:42.898Z,18.7
2016-06-03T00:33:52.885Z,18.6
2016-06-03T00:34:02.870Z,18.7
2016-06-03T00:34:12.854Z,18.7
2016-06-03T00:34:22.838Z,18.7
2016-06-03T00:34:32.854Z,18.6
2016-06-03T00:34:42.854Z,18.6
2016-06-03T00:34:52.856Z,18.7
2016-06-03T00:35:02.840Z,18.7
2016-06-03T00:35:12.856Z,18.7
2016-06-03T00:35:22.840Z,18.7
2016-06-03T00:35:33.122Z,18.6
2016-06-03T00:35:42.825Z,18.5
2016-06-03T00:35:52.906Z,18.6
2016-06-03T00:36:02.828Z,18.6
2016-06-03T00:36:12.843Z,18.7
2016-06-03T00:36:22.812Z,18.7
2016-06-03T00:36:32.922Z,18.7
2016-06-03T00:36:42.812Z,18.7
2016-06-03T00:36:52.815Z,18.7
2016-06-03T00:37:02.815Z,18.8
2016-06-03T00:37:12.815Z,18.8
2016-06-03T00:37:22.815Z,18.8
2016-06-03T00:37:32.815Z,18.8
2016-06-03T00:37:42.800Z,18.8
2016-06-03T00:37:52.833Z,18.8
2016-06-03T00:38:02.802Z,18.8
2016-06-03T00:38:12.786Z,18.7
2016-06-03T00:38:22.802Z,18.9
2016-06-03T00:38:32.864Z,18.8
2016-06-03T00:38:42.786Z,18.7
2016-06-03T00:38:52.836Z,18.7
2016-06-03T00:39:02.789Z,18.7
2016-06-03T00:39:12.805Z,18.7
2016-06-03T00:39:22.773Z,18.7
2016-06-03T00:39:33.070Z,18.7
2016-06-03T00:39:42.633Z,18.8
2016-06-03T00:39:52.792Z,18.7
2016-06-03T00:40:02.776Z,18.8
2016-06-03T00:40:13.136Z,18.8
2016-06-03T00:40:22.792Z,18.8
2016-06-03T00:40:33.089Z,18.9
2016-06-03T00:40:42.979Z,18.8
2016-06-03T00:40:52.779Z,18.8
2016-06-03T00:41:02.748Z,18.8
2016-06-03T00:41:12.904Z,18.7
2016-06-03T00:41:23.857Z,18.7
2016-06-03T00:41:33.842Z,18.7
2016-06-03T00:41:43.670Z,18.7
2016-06-03T00:41:53.548Z,18.7
2016-06-03T00:42:03.345Z,18.7
2016-06-03T00:42:13.673Z,18.7
2016-06-03T00:42:23.751Z,18.7
2016-06-03T00:42:33.673Z,18.8
2016-06-03T00:42:43.329Z,18.8
2016-06-03T00:42:53.800Z,18.9
2016-06-03T00:43:03.675Z,18.8
2016-06-03T00:43:12.987Z,18.9
2016-06-03T00:43:22.722Z,18.8
2016-06-03T00:43:32.800Z,18.8
2016-06-03T00:43:42.722Z,18.9
2016-06-03T00:43:52.708Z,18.9
2016-06-03T00:44:02.708Z,18.8
2016-06-03T00:44:12.771Z,18.8
2016-06-03T00:44:22.724Z,18.8
2016-06-03T00:44:32.708Z,18.9
2016-06-03T00:44:42.693Z,18.9
2016-06-03T00:44:52.696Z,18.8
2016-06-03T00:45:02.711Z,18.8
2016-06-03T00:45:12.774Z,18.9
2016-06-03T00:45:22.680Z,18.9
2016-06-03T00:45:32.727Z,18.8
2016-06-03T00:45:42.696Z,18.9
2016-06-03T00:45:52.683Z,18.8
2016-06-03T00:46:02.683Z,18.7
2016-06-03T00:46:12.761Z,18.7
2016-06-03T00:46:22.683Z,18.7
2016-06-03T00:46:32.683Z,18.8
2016-06-03T00:46:42.667Z,18.7
2016-06-03T00:46:52.763Z,18.9
2016-06-03T00:47:02.685Z,18.7
2016-06-03T00:47:12.701Z,18.9
2016-06-03T00:47:22.654Z,18.8
2016-06-03T00:47:32.544Z,18.8
2016-06-03T00:47:42.654Z,18.8
2016-06-03T00:47:52.658Z,18.9
2016-06-03T00:48:02.658Z,18.7
2016-06-03T00:48:12.673Z,18.6
2016-06-03T00:48:22.501Z,18.7
2016-06-03T00:48:32.658Z,18.7
2016-06-03T00:48:42.642Z,18.8
2016-06-03T00:48:52.566Z,18.8
2016-06-03T00:49:02.628Z,18.8
2016-06-03T00:49:12.628Z,18.8
2016-06-03T00:49:22.691Z,18.9
2016-06-03T00:49:32.707Z,18.8
2016-06-03T00:49:42.613Z,18.7
2016-06-03T00:49:52.631Z,18.7
2016-06-03T00:50:02.647Z,18.7
2016-06-03T00:50:12.631Z,18.8
2016-06-03T00:50:22.663Z,18.9
2016-06-03T00:50:32.631Z,18.9
2016-06-03T00:50:42.616Z,18.8
2016-06-03T00:50:52.649Z,18.8
2016-06-03T00:51:02.602Z,18.8
2016-06-03T00:51:12.602Z,18.8
2016-06-03T00:51:22.587Z,18.8
2016-06-03T00:51:32.618Z,18.8
2016-06-03T00:51:42.602Z,18.8
2016-06-03T00:51:52.636Z,18.8
2016-06-03T00:52:02.590Z,18.9
2016-06-03T00:52:12.621Z,18.8
2016-06-03T00:52:22.590Z,18.7
2016-06-03T00:52:32.621Z,18.7
2016-06-03T00:52:42.605Z,18.6
2016-06-03T00:52:52.639Z,18.6
2016-06-03T00:53:02.561Z,18.5
2016-06-03T00:53:12.811Z,18.6
2016-06-03T00:53:22.577Z,18.5
2016-06-03T00:53:32.577Z,18.6
2016-06-03T00:53:42.421Z,18.5
2016-06-03T00:53:52.579Z,18.5
2016-06-03T00:54:02.563Z,18.5
2016-06-03T00:54:12.563Z,18.6
2016-06-03T00:54:22.579Z,18.6
2016-06-03T00:54:33.173Z,18.7
2016-06-03T00:54:42.845Z,18.7
2016-06-03T00:54:52.426Z,18.7
2016-06-03T00:55:02.551Z,18.7
2016-06-03T00:55:12.426Z,18.7
2016-06-03T00:55:22.551Z,18.7
2016-06-03T00:55:32.551Z,18.6
2016-06-03T00:55:43.051Z,18.6
2016-06-03T00:55:52.554Z,18.7
2016-06-03T00:56:02.538Z,18.7
2016-06-03T00:56:12.538Z,18.7
2016-06-03T00:56:22.397Z,18.7
2016-06-03T00:56:32.522Z,18.7
2016-06-03T00:56:42.522Z,18.8
2016-06-03T00:56:52.557Z,18.9
2016-06-03T00:57:02.525Z,18.9
2016-06-03T00:57:12.541Z,18.8
2016-06-03T00:57:22.510Z,18.7
2016-06-03T00:57:32.525Z,18.7
2016-06-03T00:57:42.494Z,18.9
2016-06-03T00:57:52.575Z,18.8
2016-06-03T00:58:02.513Z,18.8
2016-06-03T00:58:12.544Z,18.7
2016-06-03T00:58:22.497Z,18.8
2016-06-03T00:58:32.513Z,18.8
2016-06-03T00:58:42.513Z,18.8
2016-06-03T00:58:52.499Z,18.8
2016-06-03T00:59:02.499Z,18.9
2016-06-03T00:59:12.546Z,18.7
2016-06-03T00:59:22.343Z,18.9
2016-06-03T00:59:32.499Z,18.8
2016-06-03T00:59:42.484Z,18.8
2016-06-03T00:59:52.501Z,18.7
2016-06-03T01:00:02.470Z,18.8
2016-06-03T01:00:12.501Z,18.7
2016-06-03T01:00:22.470Z,18.8
2016-06-03T01:00:32.486Z,18.9
2016-06-03T01:00:42.470Z,18.7
2016-06-03T01:00:52.317Z,18.7
2016-06-03T01:01:02.504Z,18.8
2016-06-03T01:01:12.473Z,18.8
2016-06-03T01:01:22.457Z,18.8
2016-06-03T01:01:32.457Z,18.8
2016-06-03T01:01:42.457Z,18.7
2016-06-03T01:01:52.460Z,18.6
2016-06-03T01:02:02.445Z,18.6
2016-06-03T01:02:12.523Z,18.5
2016-06-03T01:02:22.304Z,18.5
2016-06-03T01:02:32.445Z,18.3
2016-06-03T01:02:42.429Z,18.4
2016-06-03T01:02:52.510Z,18.3
2016-06-03T01:03:02.416Z,18.3
2016-06-03T01:03:12.479Z,18.3
2016-06-03T01:03:22.432Z,18.4
2016-06-03T01:03:32.463Z,18.4
2016-06-03T01:03:42.448Z,18.5
2016-06-03T01:03:52.497Z,18.5
2016-06-03T01:04:02.418Z,18.6
2016-06-03T01:04:12.450Z,18.7
2016-06-03T01:04:22.403Z,18.7
2016-06-03T01:04:32.465Z,18.6
2016-06-03T01:04:42.450Z,18.7
2016-06-03T01:04:52.406Z,18.7
2016-06-03T01:05:02.390Z,18.7
2016-06-03T01:05:12.468Z,18.8
2016-06-03T01:05:22.390Z,18.8
2016-06-03T01:05:32.406Z,18.8
2016-06-03T01:05:42.390Z,18.7
2016-06-03T01:05:52.393Z,18.8
2016-06-03T01:06:02.378Z,18.8
2016-06-03T01:06:12.456Z,18.9
2016-06-03T01:06:22.378Z,18.9
2016-06-03T01:06:32.393Z,18.9
2016-06-03T01:06:42.362Z,18.9
2016-06-03T01:06:52.396Z,18.9
2016-06-03T01:07:02.381Z,18.8
2016-06-03T01:07:12.381Z,18.8
2016-06-03T01:07:22.365Z,18.8
2016-06-03T01:07:32.443Z,18.8
2016-06-03T01:07:42.365Z,18.8
2016-06-03T01:07:52.415Z,18.6
2016-06-03T01:08:02.352Z,18.7
2016-06-03T01:08:12.384Z,18.7
2016-06-03T01:08:22.352Z,18.7
2016-06-03T01:08:32.415Z,18.8
2016-06-03T01:08:42.352Z,18.8
2016-06-03T01:08:52.354Z,18.9
2016-06-03T01:09:02.354Z,18.9
2016-06-03T01:09:12.370Z,18.8
2016-06-03T01:09:22.339Z,18.8
2016-06-03T01:09:32.401Z,18.9
2016-06-03T01:09:42.182Z,18.9
2016-06-03T01:09:52.342Z,18.9
2016-06-03T01:10:02.342Z,18.9
2016-06-03T01:10:12.357Z,18.9
2016-06-03T01:10:22.889Z,18.8
2016-06-03T01:10:32.185Z,18.9
2016-06-03T01:10:42.170Z,18.8
2016-06-03T01:10:52.203Z,18.8
2016-06-03T01:11:02.312Z,18.9
2016-06-03T01:11:12.344Z,18.8
2016-06-03T01:11:22.312Z,18.8
2016-06-03T01:11:32.312Z,18.9
2016-06-03T01:11:42.297Z,18.9
2016-06-03T01:11:52.362Z,19
2016-06-03T01:12:02.300Z,19
2016-06-03T01:12:12.331Z,19
2016-06-03T01:12:22.300Z,19
2016-06-03T01:12:32.315Z,19
2016-06-03T01:12:42.300Z,18.8
2016-06-03T01:12:52.317Z,18.9
2016-06-03T01:13:02.286Z,18.9
2016-06-03T01:13:12.333Z,18.9
2016-06-03T01:13:22.286Z,18.9
2016-06-03T01:13:32.271Z,18.9
2016-06-03T01:13:42.271Z,18.9
2016-06-03T01:13:52.305Z,18.8
2016-06-03T01:14:02.274Z,18.9
2016-06-03T01:14:12.149Z,19
2016-06-03T01:14:22.258Z,18.9
2016-06-03T01:14:32.352Z,19
2016-06-03T01:14:42.258Z,18.8
2016-06-03T01:14:52.277Z,18.9
2016-06-03T01:15:02.245Z,18.8
2016-06-03T01:15:12.277Z,18.9
2016-06-03T01:15:22.277Z,18.9
2016-06-03T01:15:32.245Z,19
2016-06-03T01:15:42.245Z,19
2016-06-03T01:15:52.248Z,19
2016-06-03T01:16:02.248Z,19
2016-06-03T01:16:12.248Z,19
2016-06-03T01:16:22.311Z,18.9
2016-06-03T01:16:32.264Z,18.9
2016-06-03T01:16:42.264Z,18.9
2016-06-03T01:16:52.235Z,18.9
2016-06-03T01:17:02.219Z,18.8
2016-06-03T01:17:12.219Z,18.9
2016-06-03T01:17:22.203Z,18.9
2016-06-03T01:17:32.219Z,18.9
2016-06-03T01:17:42.078Z,18.9
2016-06-03T01:17:52.206Z,18.8
2016-06-03T01:18:02.206Z,18.9
2016-06-03T01:18:12.191Z,18.9
2016-06-03T01:18:22.206Z,18.8
2016-06-03T01:18:32.285Z,18.8
2016-06-03T01:18:42.206Z,18.8
2016-06-03T01:18:52.194Z,18.9
2016-06-03T01:19:02.225Z,18.9
2016-06-03T01:19:12.256Z,18.9
2016-06-03T01:19:22.038Z,18.9
2016-06-03T01:19:32.194Z,18.9
2016-06-03T01:19:42.178Z,19
2016-06-03T01:19:52.243Z,18.8
2016-06-03T01:20:02.196Z,18.9
2016-06-03T01:20:12.165Z,18.9
2016-06-03T01:20:22.180Z,19
2016-06-03T01:20:32.243Z,19
2016-06-03T01:20:42.180Z,18.9
2016-06-03T01:20:52.168Z,19
2016-06-03T01:21:02.168Z,18.9
2016-06-03T01:21:12.183Z,18.9
2016-06-03T01:21:22.168Z,18.9
2016-06-03T01:21:32.168Z,18.8
2016-06-03T01:21:42.152Z,18.9
2016-06-03T01:21:52.217Z,18.9
2016-06-03T01:22:02.155Z,18.9
2016-06-03T01:22:12.155Z,18.9
2016-06-03T01:22:22.139Z,18.8
2016-06-03T01:22:32.155Z,18.8
2016-06-03T01:22:41.983Z,18.8
2016-06-03T01:22:52.142Z,18.8
2016-06-03T01:23:02.002Z,18.8
2016-06-03T01:23:12.142Z,18.8
2016-06-03T01:23:22.142Z,18.7
2016-06-03T01:23:32.142Z,18.6
2016-06-03T01:23:42.158Z,18.6
2016-06-03T01:23:52.129Z,18.5
2016-06-03T01:24:02.129Z,18.5
2016-06-03T01:24:12.129Z,18.5
2016-06-03T01:24:22.129Z,18.6
2016-06-03T01:24:32.660Z,18.5
2016-06-03T01:24:42.222Z,18.6
2016-06-03T01:24:51.975Z,18.5
2016-06-03T01:25:02.288Z,18.6
2016-06-03T01:25:12.663Z,18.6
2016-06-03T01:25:22.194Z,18.6
2016-06-03T01:25:32.100Z,18.6
2016-06-03T01:25:42.132Z,18.7
2016-06-03T01:25:51.978Z,18.5
2016-06-03T01:26:02.088Z,18.6
2016-06-03T01:26:12.088Z,18.7
2016-06-03T01:26:22.103Z,18.7
2016-06-03T01:26:32.088Z,18.8
2016-06-03T01:26:42.088Z,18.8
2016-06-03T01:26:52.074Z,18.8
2016-06-03T01:27:02.074Z,18.7
2016-06-03T01:27:12.090Z,18.8
2016-06-03T01:27:22.074Z,18.8
2016-06-03T01:27:32.074Z,18.9
2016-06-03T01:27:42.090Z,18.8
2016-06-03T01:27:52.062Z,18.9
2016-06-03T01:28:02.077Z,18.9
2016-06-03T01:28:12.062Z,18.9
2016-06-03T01:28:22.062Z,18.9
2016-06-03T01:28:32.062Z,18.9
2016-06-03T01:28:42.062Z,18.9
2016-06-03T01:28:52.048Z,18.8
2016-06-03T01:29:02.048Z,18.9
2016-06-03T01:29:12.048Z,18.8
2016-06-03T01:29:22.048Z,18.8
2016-06-03T01:29:32.032Z,18.9
2016-06-03T01:29:42.032Z,18.9
2016-06-03T01:29:52.051Z,18.9
2016-06-03T01:30:02.067Z,18.9
2016-06-03T01:30:12.020Z,18.9
2016-06-03T01:30:22.035Z,18.8
2016-06-03T01:30:32.020Z,18.9
2016-06-03T01:30:42.020Z,18.9
2016-06-03T01:30:52.007Z,18.9
2016-06-03T01:31:02.007Z,18.7
2016-06-03T01:31:12.023Z,18.8
2016-06-03T01:31:22.038Z,18.8
2016-06-03T01:31:32.038Z,18.8
2016-06-03T01:31:42.007Z,18.8
2016-06-03T01:31:52.041Z,18.9
2016-06-03T01:32:01.994Z,18.9
2016-06-03T01:32:12.010Z,18.7
2016-06-03T01:32:22.010Z,18.8
2016-06-03T01:32:31.994Z,18.7
2016-06-03T01:32:42.010Z,18.8
2016-06-03T01:32:51.996Z,18.7
2016-06-03T01:33:01.996Z,18.7
2016-06-03T01:33:11.981Z,18.7
2016-06-03T01:33:21.981Z,18.7
2016-06-03T01:33:31.981Z,18.7
2016-06-03T01:33:41.965Z,18.9
2016-06-03T01:33:51.984Z,18.9
2016-06-03T01:34:01.890Z,18.9
2016-06-03T01:34:11.984Z,18.8
2016-06-03T01:34:22.015Z,18.9
2016-06-03T01:34:31.812Z,18.8
2016-06-03T01:34:41.968Z,18.7
2016-06-03T01:34:51.971Z,18.8
2016-06-03T01:35:01.956Z,18.8
2016-06-03T01:35:11.971Z,18.9
2016-06-03T01:35:21.956Z,18.9
2016-06-03T01:35:31.940Z,18.9
2016-06-03T01:35:41.956Z,18.8
2016-06-03T01:35:51.958Z,18.8
2016-06-03T01:36:01.958Z,18.9
2016-06-03T01:36:11.958Z,18.9
2016-06-03T01:36:21.942Z,18.9
2016-06-03T01:36:31.942Z,18.7
2016-06-03T01:36:41.942Z,18.8
2016-06-03T01:36:51.929Z,18.8
2016-06-03T01:37:01.929Z,18.7
2016-06-03T01:37:11.961Z,18.7
2016-06-03T01:37:21.914Z,18.8
2016-06-03T01:37:31.929Z,18.8
2016-06-03T01:37:41.914Z,18.9
2016-06-03T01:37:51.932Z,18.8
2016-06-03T01:38:01.917Z,18.9
2016-06-03T01:38:11.964Z,18.9
2016-06-03T01:38:21.901Z,18.9
2016-06-03T01:38:31.948Z,18.8
2016-06-03T01:38:41.917Z,18.8
2016-06-03T01:38:51.903Z,18.9
2016-06-03T01:39:01.919Z,18.8
2016-06-03T01:39:11.903Z,18.9
2016-06-03T01:39:21.903Z,18.9
2016-06-03T01:39:31.903Z,18.7
2016-06-03T01:39:41.606Z,18.9
2016-06-03T01:39:52.532Z,18.8
2016-06-03T01:40:01.891Z,18.9
2016-06-03T01:40:12.485Z,18.9
2016-06-03T01:40:21.735Z,18.8
2016-06-03T01:40:32.188Z,18.8
2016-06-03T01:40:41.876Z,18.8
2016-06-03T01:40:51.925Z,18.7
2016-06-03T01:41:01.893Z,18.8
2016-06-03T01:41:11.862Z,18.7
2016-06-03T01:41:21.878Z,18.7
2016-06-03T01:41:31.862Z,18.7
2016-06-03T01:41:41.878Z,18.7
2016-06-03T01:41:51.864Z,18.7
2016-06-03T01:42:01.849Z,18.6
2016-06-03T01:42:11.864Z,18.7
2016-06-03T01:42:21.911Z,18.7
2016-06-03T01:42:31.833Z,18.7
2016-06-03T01:42:41.864Z,18.7
2016-06-03T01:42:51.867Z,18.9
2016-06-03T01:43:01.961Z,18.8
2016-06-03T01:43:11.836Z,18.9
2016-06-03T01:43:21.836Z,18.8
2016-06-03T01:43:31.820Z,18.8
2016-06-03T01:43:41.820Z,18.8
2016-06-03T01:43:51.839Z,18.9
2016-06-03T01:44:01.855Z,18.8
2016-06-03T01:44:11.823Z,18.9
2016-06-03T01:44:21.839Z,18.8
2016-06-03T01:44:31.823Z,18.9
2016-06-03T01:44:41.808Z,18.9
2016-06-03T01:44:51.842Z,18.9
2016-06-03T01:45:01.826Z,18.9
2016-06-03T01:45:11.811Z,18.9
2016-06-03T01:45:21.811Z,19
2016-06-03T01:45:31.811Z,19
2016-06-03T01:45:41.811Z,18.9
2016-06-03T01:45:51.828Z,18.8
2016-06-03T01:46:01.813Z,18.8
2016-06-03T01:46:11.797Z,18.9
2016-06-03T01:46:21.922Z,18.8
2016-06-03T01:46:31.797Z,18.9
2016-06-03T01:46:41.797Z,18.8
2016-06-03T01:46:51.644Z,19
2016-06-03T01:47:01.800Z,19
2016-06-03T01:47:11.800Z,19
2016-06-03T01:47:21.784Z,18.9
2016-06-03T01:47:31.769Z,19
2016-06-03T01:47:41.863Z,19
2016-06-03T01:47:51.772Z,19
2016-06-03T01:48:01.772Z,19
2016-06-03T01:48:11.772Z,19
2016-06-03T01:48:21.834Z,19
2016-06-03T01:48:31.756Z,19
2016-06-03T01:48:41.756Z,19
2016-06-03T01:48:51.774Z,18.9
2016-06-03T01:49:01.821Z,18.9
2016-06-03T01:49:11.758Z,18.9
2016-06-03T01:49:21.743Z,19
2016-06-03T01:49:31.758Z,19
2016-06-03T01:49:41.618Z,19
2016-06-03T01:49:51.746Z,19.1
2016-06-03T01:50:01.746Z,19.1
2016-06-03T01:50:11.746Z,19
2016-06-03T01:50:21.777Z,19.1
2016-06-03T01:50:31.730Z,19
2016-06-03T01:50:41.730Z,19
2016-06-03T01:50:51.749Z,19
2016-06-03T01:51:01.733Z,19.1
2016-06-03T01:51:11.733Z,19
2016-06-03T01:51:21.717Z,19
2016-06-03T01:51:31.749Z,19
2016-06-03T01:51:41.764Z,19.1
2016-06-03T01:51:51.564Z,19
2016-06-03T01:52:01.736Z,19.1
2016-06-03T01:52:11.720Z,19
2016-06-03T01:52:21.767Z,19
2016-06-03T01:52:31.720Z,19
2016-06-03T01:52:41.705Z,19
2016-06-03T01:52:51.708Z,19
2016-06-03T01:53:01.708Z,19
2016-06-03T01:53:11.692Z,18.9
2016-06-03T01:53:21.692Z,18.9
2016-06-03T01:53:31.692Z,18.9
2016-06-03T01:53:41.739Z,18.8
2016-06-03T01:53:51.584Z,18.9
2016-06-03T01:54:01.693Z,18.7
2016-06-03T01:54:11.677Z,18.7
2016-06-03T01:54:21.693Z,18.9
2016-06-03T01:54:31.459Z,18.8
2016-06-03T01:54:41.677Z,18.9
2016-06-03T01:54:51.555Z,18.8
2016-06-03T01:55:02.087Z,18.8
2016-06-03T01:55:11.665Z,18.8
2016-06-03T01:55:22.759Z,18.9
2016-06-03T01:55:31.696Z,18.9
2016-06-03T01:55:41.540Z,18.8
2016-06-03T01:55:51.965Z,18.9
2016-06-03T01:56:01.652Z,18.9
2016-06-03T01:56:11.652Z,18.9
2016-06-03T01:56:21.668Z,18.8
2016-06-03T01:56:31.652Z,18.9
2016-06-03T01:56:41.652Z,18.8
2016-06-03T01:56:51.640Z,18.9
2016-06-03T01:57:01.655Z,18.9
2016-06-03T01:57:11.640Z,19
2016-06-03T01:57:21.624Z,18.9
2016-06-03T01:57:31.640Z,18.9
2016-06-03T01:57:41.655Z,19
2016-06-03T01:57:51.626Z,19
2016-06-03T01:58:01.626Z,19
2016-06-03T01:58:11.657Z,19
2016-06-03T01:58:21.626Z,19
2016-06-03T01:58:31.626Z,19
2016-06-03T01:58:41.626Z,19
2016-06-03T01:58:51.613Z,19.1
2016-06-03T01:59:01.645Z,19
2016-06-03T01:59:11.613Z,19
2016-06-03T01:59:21.598Z,19.1
2016-06-03T01:59:31.598Z,19
2016-06-03T01:59:41.598Z,19
2016-06-03T01:59:51.601Z,19
2016-06-03T02:00:01.632Z,19
2016-06-03T02:00:11.601Z,19
2016-06-03T02:00:21.601Z,19
2016-06-03T02:00:31.601Z,19
2016-06-03T02:00:41.585Z,19
2016-06-03T02:00:51.588Z,19
2016-06-03T02:01:01.588Z,19
2016-06-03T02:01:11.588Z,19
2016-06-03T02:01:21.572Z,19.2
2016-06-03T02:01:31.572Z,19.1
2016-06-03T02:01:41.572Z,19
2016-06-03T02:01:51.590Z,19
2016-06-03T02:02:01.574Z,19
2016-06-03T02:02:11.574Z,19
2016-06-03T02:02:21.559Z,19.1
2016-06-03T02:02:31.559Z,19
2016-06-03T02:02:41.559Z,19
2016-06-03T02:02:51.563Z,19.1
2016-06-03T02:03:01.547Z,19.1
2016-06-03T02:03:11.594Z,19
2016-06-03T02:03:21.407Z,18.9
2016-06-03T02:03:31.547Z,19
2016-06-03T02:03:41.563Z,18.9
2016-06-03T02:03:51.534Z,19
2016-06-03T02:04:01.534Z,19
2016-06-03T02:04:11.534Z,19
2016-06-03T02:04:21.534Z,19
2016-06-03T02:04:31.377Z,18.9
2016-06-03T02:04:41.377Z,18.9
2016-06-03T02:04:51.567Z,18.8
2016-06-03T02:05:01.536Z,18.9
2016-06-03T02:05:11.520Z,18.8
2016-06-03T02:05:21.536Z,18.8
2016-06-03T02:05:31.520Z,18.9
2016-06-03T02:05:41.504Z,18.8
2016-06-03T02:05:51.523Z,18.9
2016-06-03T02:06:01.507Z,18.9
2016-06-03T02:06:11.523Z,18.9
2016-06-03T02:06:21.507Z,18.9
2016-06-03T02:06:31.492Z,18.9
2016-06-03T02:06:41.523Z,18.8
2016-06-03T02:06:51.495Z,18.9
2016-06-03T02:07:01.495Z,18.9
2016-06-03T02:07:11.495Z,18.9
2016-06-03T02:07:21.495Z,18.9
2016-06-03T02:07:31.542Z,18.9
2016-06-03T02:07:41.495Z,19
2016-06-03T02:07:51.481Z,19
2016-06-03T02:08:01.465Z,19
2016-06-03T02:08:11.481Z,19
2016-06-03T02:08:21.497Z,19
2016-06-03T02:08:31.481Z,18.8
2016-06-03T02:08:41.465Z,18.8
2016-06-03T02:08:51.469Z,18.9
2016-06-03T02:09:01.469Z,19
2016-06-03T02:09:11.469Z,19
2016-06-03T02:09:21.454Z,19
2016-06-03T02:09:31.469Z,19
2016-06-03T02:09:41.626Z,19
2016-06-03T02:09:51.471Z,19
2016-06-03T02:10:01.581Z,19
2016-06-03T02:10:11.893Z,19
2016-06-03T02:10:21.925Z,19
2016-06-03T02:10:32.050Z,19
2016-06-03T02:10:41.456Z,18.8
2016-06-03T02:10:52.115Z,18.9
2016-06-03T02:11:01.428Z,18.9
2016-06-03T02:11:11.443Z,18.9
2016-06-03T02:11:21.428Z,18.9
2016-06-03T02:11:31.459Z,18.8
2016-06-03T02:11:41.428Z,18.8
2016-06-03T02:11:51.430Z,18.9
2016-06-03T02:12:01.430Z,18.7
2016-06-03T02:12:11.476Z,18.8
2016-06-03T02:12:21.414Z,18.8
2016-06-03T02:12:31.461Z,18.8
2016-06-03T02:12:41.414Z,18.8
2016-06-03T02:12:51.495Z,18.9
2016-06-03T02:13:01.417Z,18.9
2016-06-03T02:13:11.417Z,19
2016-06-03T02:13:21.386Z,19
2016-06-03T02:13:31.401Z,19
2016-06-03T02:13:41.308Z,19
2016-06-03T02:13:51.404Z,19
2016-06-03T02:14:01.389Z,18.9
2016-06-03T02:14:11.404Z,18.9